Time;durP1;ratioP1;P1;durP2;ratioP2;P2;SDS_P1;SDS_P2;PMS_P1;PMS_P2;Temp;Humidity;BMP_temperature;BMP_pressure;BME280_temperature;BME280_humidity;BME280_pressure;Samples;Min_cycle;Max_cycle;Signal;HPM_P1;HPM_P2
2024/03/07 00:09:52;;;;;;;46.25;24.27;;;6.40;39.80;;;;;;20703216;28;20518;-40
2024/03/07 00:19:53;;;;;;;49.13;24.67;;;6.20;44.40;;;;;;20703603;28;20041;-40
2024/03/07 00:29:53;;;;;;;49.58;25.30;;;6.20;52.50;;;;;;20701344;28;20120;-40
2024/03/07 00:39:54;;;;;;;49.05;25.35;;;6.10;55.90;;;;;;20700616;28;20111;-40
2024/03/07 00:49:55;;;;;;;47.92;24.75;;;6.10;56.60;;;;;;20695040;28;20328;-40
2024/03/07 00:59:58;;;;;;;52.45;24.40;;;5.90;56.20;;;;;;20697632;28;20046;-41
2024/03/07 01:10:00;;;;;;;51.35;25.02;;;5.80;56.30;;;;;;20689777;28;20520;-40
2024/03/07 01:20:02;;;;;;;47.88;24.80;;;5.70;56.60;;;;;;20692307;28;20432;-40
2024/03/07 01:30:03;;;;;;;51.67;25.33;;;5.60;51.80;;;;;;20691974;28;20132;-40
2024/03/07 01:40:05;;;;;;;49.67;25.45;;;5.50;60.20;;;;;;20693230;28;20061;-40
2024/03/07 01:50:07;;;;;;;57.45;25.30;;;5.50;67.80;;;;;;20704510;28;20045;-40
2024/03/07 02:00:09;;;;;;;52.78;26.48;;;5.30;69.20;;;;;;20708108;28;20037;-40
2024/03/07 02:10:10;;;;;;;54.83;26.92;;;5.20;73.80;;;;;;20705779;28;20034;-40
2024/03/07 02:20:11;;;;;;;56.55;26.65;;;5.20;84.10;;;;;;20694641;28;20045;-40
2024/03/07 02:30:12;;;;;;;49.17;24.70;;;5.20;85.90;;;;;;20707615;28;20038;-40
2024/03/07 02:40:16;;;;;;;53.28;26.92;;;5.10;90.30;;;;;;20702565;28;20576;-41
2024/03/07 02:50:16;;;;;;;53.53;27.73;;;5.10;87.60;;;;;;20695138;28;20062;-40
2024/03/07 03:00:23;;;;;;;62.42;26.88;;;5.10;93.00;;;;;;20700534;28;20048;-40
2024/03/07 03:10:32;;;;;;;58.27;27.97;;;5.20;99.90;;;;;;20701987;28;20435;-43
2024/03/07 03:20:33;;;;;;;61.60;29.20;;;5.30;99.90;;;;;;20706030;28;20434;-40
2024/03/07 03:30:34;;;;;;;58.22;28.38;;;5.40;99.90;;;;;;20696045;28;20450;-40
2024/03/07 03:40:35;;;;;;;61.47;29.67;;;5.50;99.90;;;;;;20642835;28;20454;-41
2024/03/07 03:50:35;;;;;;;63.45;30.90;;;5.60;99.90;;;;;;20701532;28;20568;-40
2024/03/07 04:00:36;;;;;;;59.50;29.52;;;5.50;99.90;;;;;;20700223;28;20030;-40
2024/03/07 04:10:37;;;;;;;56.10;27.73;;;5.40;99.90;;;;;;20697657;28;20042;-40
2024/03/07 04:20:39;;;;;;;60.05;28.65;;;5.30;99.90;;;;;;20698103;28;20046;-40
2024/03/07 04:30:39;;;;;;;59.67;29.75;;;5.20;97.70;;;;;;20697209;28;20095;-40
2024/03/07 04:40:41;;;;;;;54.55;27.60;;;5.10;96.00;;;;;;20689188;28;20333;-41
2024/03/07 04:50:42;;;;;;;54.70;27.13;;;4.90;96.90;;;;;;20697981;28;20124;-40
2024/03/07 05:00:42;;;;;;;54.97;28.10;;;4.90;93.90;;;;;;20695625;28;20044;-41
2024/03/07 05:10:43;;;;;;;58.05;28.42;;;4.80;94.30;;;;;;20702405;28;20038;-41
2024/03/07 05:20:44;;;;;;;56.97;26.73;;;4.70;97.60;;;;;;20712446;28;20084;-40
2024/03/07 05:30:45;;;;;;;55.22;28.80;;;4.60;94.00;;;;;;20709029;28;20038;-40
2024/03/07 05:40:46;;;;;;;54.37;26.50;;;4.50;95.30;;;;;;20699807;28;20050;-41
2024/03/07 05:50:47;;;;;;;55.17;27.80;;;4.50;91.00;;;;;;20708871;28;20445;-41
2024/03/07 06:00:49;;;;;;;55.03;27.30;;;4.40;92.40;;;;;;20709813;28;20120;-41
2024/03/07 06:10:50;;;;;;;59.30;26.92;;;4.30;98.50;;;;;;20701627;28;20045;-41
2024/03/07 06:20:50;;;;;;;56.38;27.23;;;4.30;99.90;;;;;;20711840;28;20042;-40
2024/03/07 06:30:51;;;;;;;56.28;27.92;;;4.30;99.90;;;;;;20714704;28;20395;-40
2024/03/07 06:40:52;;;;;;;60.63;28.93;;;4.20;99.90;;;;;;20713248;28;20510;-40
2024/03/07 06:50:53;;;;;;;58.50;27.88;;;4.20;99.90;;;;;;20714849;28;20532;-41
2024/03/07 07:00:54;;;;;;;60.70;28.80;;;4.30;99.90;;;;;;20713701;28;20451;-41
2024/03/07 07:10:55;;;;;;;61.10;28.33;;;4.30;99.90;;;;;;20711657;28;20156;-41
2024/03/07 07:20:58;;;;;;;55.80;28.48;;;4.30;99.90;;;;;;20716134;28;20461;-41
2024/03/07 07:30:58;;;;;;;63.42;28.77;;;4.40;93.60;;;;;;20709931;28;20092;-40
2024/03/07 07:40:59;;;;;;;55.08;27.30;;;4.50;98.20;;;;;;20706614;28;20054;-40
2024/03/07 07:51:01;;;;;;;58.90;29.80;;;4.60;98.30;;;;;;20699979;28;20064;-41
2024/03/07 08:01:02;;;;;;;57.92;28.45;;;4.80;90.40;;;;;;20699532;28;20050;-41
2024/03/07 08:11:03;;;;;;;49.58;24.52;;;4.90;66.40;;;;;;20706379;28;20157;-40
2024/03/07 08:21:05;;;;;;;52.60;25.50;;;5.10;52.60;;;;;;20705425;28;20045;-41
2024/03/07 08:31:05;;;;;;;43.75;24.23;;;5.40;44.00;;;;;;20677898;28;20056;-41
2024/03/07 08:41:08;;;;;;;44.83;24.30;;;5.60;38.60;;;;;;20698210;28;20065;-41
2024/03/07 08:51:09;;;;;;;39.53;23.40;;;5.90;21.80;;;;;;20699262;28;20052;-41
2024/03/07 09:01:09;;;;;;;35.50;21.65;;;6.30;11.70;;;;;;20708694;28;20532;-42
2024/03/07 09:11:10;;;;;;;36.67;20.63;;;6.70;1.00;;;;;;20695247;28;20045;-41
2024/03/07 09:21:11;;;;;;;35.25;20.10;;;7.10;1.00;;;;;;20695817;28;20469;-41
2024/03/07 09:31:14;;;;;;;31.80;18.50;;;7.50;1.00;;;;;;20687671;28;20043;-41
2024/03/07 09:41:16;;;;;;;28.73;17.52;;;7.80;1.00;;;;;;20681202;28;20568;-41
2024/03/07 09:51:18;;;;;;;24.42;15.70;;;8.10;1.00;;;;;;20701245;28;20065;-41
2024/03/07 10:01:26;;;;;;;21.75;14.15;;;8.30;1.00;;;;;;20708987;28;20458;-41
2024/03/07 10:11:26;;;;;;;27.00;13.68;;;8.60;1.00;;;;;;20717371;28;20045;-41
2024/03/07 10:21:27;;;;;;;21.63;13.45;;;8.90;1.00;;;;;;20720147;28;20049;-41
2024/03/07 10:31:29;;;;;;;22.10;14.07;;;9.10;1.00;;;;;;20716828;28;20042;-41
2024/03/07 10:41:36;;;;;;;19.92;12.35;;;9.30;1.00;;;;;;20712315;28;20494;-41
2024/03/07 10:51:47;;;;;;;22.60;12.40;;;9.80;1.00;;;;;;20701103;28;20053;-41
2024/03/07 11:01:59;;;;;;;22.85;13.38;;;10.00;1.00;;;;;;20711389;28;20049;-41
2024/03/07 11:12:06;;;;;;;22.08;12.95;;;10.40;1.00;;;;;;20708682;28;20046;-41
2024/03/07 11:22:17;;;;;;;22.03;13.33;;;10.90;1.00;;;;;;20710285;28;20042;-41
2024/03/07 11:32:20;;;;;;;20.40;13.13;;;11.40;1.00;;;;;;20706569;28;20042;-41
2024/03/07 11:42:25;;;;;;;22.00;13.10;;;12.10;1.00;;;;;;20706903;28;20053;-41
2024/03/07 11:52:27;;;;;;;19.35;13.10;;;11.90;1.00;;;;;;20698513;28;20042;-41
2024/03/07 12:02:29;;;;;;;20.70;12.68;;;11.50;1.00;;;;;;20697107;28;20030;-41
2024/03/07 12:12:30;;;;;;;20.23;12.80;;;11.50;1.00;;;;;;20695696;28;20049;-41
2024/03/07 12:22:32;;;;;;;21.00;13.27;;;10.90;1.00;;;;;;20697641;28;20309;-41
2024/03/07 12:32:33;;;;;;;21.15;12.98;;;11.00;1.00;;;;;;20697649;28;20030;-41
2024/03/07 12:42:34;;;;;;;18.00;10.88;;;12.20;1.00;;;;;;20645043;28;20141;-41
2024/03/07 12:52:34;;;;;;;18.10;10.88;;;12.10;1.00;;;;;;20661422;28;20117;-42
2024/03/07 13:02:35;;;;;;;18.57;12.27;;;12.30;1.00;;;;;;20693289;28;20053;-42
2024/03/07 13:12:37;;;;;;;20.02;11.70;;;13.20;1.00;;;;;;20695431;28;20049;-41
2024/03/07 13:22:48;;;;;;;16.63;11.27;;;14.10;1.00;;;;;;20653971;28;20111;-42
2024/03/07 13:32:49;;;;;;;18.10;11.20;;;14.30;1.00;;;;;;20699518;28;20069;-41
2024/03/07 13:42:53;;;;;;;16.48;10.82;;;14.50;1.00;;;;;;20668532;28;20046;-42
2024/03/07 13:53:13;;;;;;;17.90;11.18;;;15.20;1.00;;;;;;20713467;28;20119;-42
2024/03/07 14:03:29;;;;;;;17.33;11.40;;;15.40;1.00;;;;;;20708944;28;20355;-42
2024/03/07 14:14:00;;;;;;;16.00;10.70;;;15.40;1.00;;;;;;20714015;28;20508;-42
2024/03/07 14:24:21;;;;;;;15.20;10.52;;;15.50;1.00;;;;;;20708881;28;20069;-42
2024/03/07 14:34:28;;;;;;;15.57;11.40;;;15.20;1.00;;;;;;20652331;28;20101;-42
2024/03/07 14:44:28;;;;;;;14.13;10.27;;;15.00;1.00;;;;;;20613916;28;20497;-42
2024/03/07 14:54:29;;;;;;;17.87;12.90;;;13.70;1.00;;;;;;20702371;28;20520;-41
2024/03/07 15:04:32;;;;;;;17.98;12.45;;;12.20;1.00;;;;;;20673947;28;20040;-41
2024/03/07 15:14:33;;;;;;;17.70;11.85;;;11.30;1.00;;;;;;20699486;28;20143;-41
2024/03/07 15:24:36;;;;;;;17.70;11.60;;;10.60;1.00;;;;;;20667636;28;20046;-41
2024/03/07 15:34:37;;;;;;;18.88;12.27;;;10.10;1.00;;;;;;20697025;28;20050;-41
2024/03/07 15:44:39;;;;;;;18.75;12.18;;;9.90;1.00;;;;;;20686929;28;20138;-41
2024/03/07 15:54:41;;;;;;;19.63;11.40;;;9.60;1.00;;;;;;20665100;28;20112;-41
2024/03/07 16:04:42;;;;;;;17.35;10.82;;;9.90;1.00;;;;;;20680367;28;20120;-41
2024/03/07 16:14:42;;;;;;;17.38;11.10;;;9.90;1.00;;;;;;20633087;28;20042;-41
2024/03/07 16:24:46;;;;;;;17.87;11.80;;;9.60;1.00;;;;;;20705222;28;20037;-41
2024/03/07 16:34:46;;;;;;;20.30;13.10;;;9.40;1.00;;;;;;20684958;28;20448;-41
2024/03/07 16:44:47;;;;;;;21.03;13.03;;;9.20;1.00;;;;;;20701964;28;20096;-40
2024/03/07 16:54:48;;;;;;;21.83;13.48;;;8.90;1.00;;;;;;20704416;28;20433;-41
2024/03/07 17:04:48;;;;;;;21.23;14.10;;;8.80;1.00;;;;;;20702278;28;20042;-41
2024/03/07 17:14:49;;;;;;;22.85;13.20;;;8.70;1.00;;;;;;20698581;28;20033;-41
2024/03/07 17:24:49;;;;;;;24.33;14.75;;;8.40;1.00;;;;;;20701368;28;20426;-40
2024/03/07 17:34:50;;;;;;;29.15;17.48;;;8.30;1.00;;;;;;20700293;28;20038;-41
2024/03/07 17:44:52;;;;;;;30.67;18.60;;;8.20;1.00;;;;;;20697677;28;20073;-41
2024/03/07 17:54:54;;;;;;;27.55;15.23;;;7.90;1.00;;;;;;20687068;28;20050;-41
2024/03/07 18:04:54;;;;;;;26.73;15.05;;;7.90;1.00;;;;;;20653525;28;20100;-40
2024/03/07 18:14:55;;;;;;;26.90;14.45;;;7.70;1.00;;;;;;20667936;28;20521;-41
2024/03/07 18:24:56;;;;;;;28.52;14.85;;;7.60;1.00;;;;;;20698847;28;20053;-41
2024/03/07 18:34:56;;;;;;;26.83;14.60;;;7.50;1.00;;;;;;20702333;28;20041;-41
2024/03/07 18:44:57;;;;;;;26.27;14.80;;;7.40;1.00;;;;;;20699985;28;20060;-41
2024/03/07 18:54:59;;;;;;;28.60;14.63;;;7.20;1.00;;;;;;20674880;28;20510;-41
2024/03/07 19:05:12;;;;;;;32.60;15.98;;;7.10;1.00;;;;;;20624325;28;20042;-41
2024/03/07 19:15:13;;;;;;;32.90;16.02;;;7.10;1.00;;;;;;20657773;28;20421;-41
2024/03/07 19:25:18;;;;;;;30.52;14.73;;;6.90;1.00;;;;;;20705211;28;20132;-41
2024/03/07 19:35:19;;;;;;;32.33;15.32;;;6.80;1.00;;;;;;20703899;28;20111;-41
2024/03/07 19:45:21;;;;;;;32.17;15.45;;;6.70;1.00;;;;;;20702849;28;20042;-40
2024/03/07 19:55:22;;;;;;;34.00;16.02;;;6.50;1.00;;;;;;20704504;28;20447;-41
2024/03/07 20:05:25;;;;;;;29.58;15.02;;;6.50;1.00;;;;;;20698313;28;20049;-41
2024/03/07 20:15:26;;;;;;;31.88;15.35;;;6.50;1.00;;;;;;20687578;28;20489;-41
2024/03/07 20:25:28;;;;;;;32.80;16.20;;;6.30;1.00;;;;;;20690809;28;20037;-41
2024/03/07 20:35:28;;;;;;;28.88;14.77;;;6.20;1.00;;;;;;20690399;28;20548;-41
2024/03/07 20:45:29;;;;;;;36.40;15.88;;;6.00;1.00;;;;;;20685707;28;20045;-41
2024/03/07 20:55:30;;;;;;;35.17;16.00;;;5.90;1.00;;;;;;20639347;28;20034;-40
2024/03/07 21:05:34;;;;;;;34.47;16.87;;;6.00;1.00;;;;;;20682737;28;20052;-40
2024/03/07 21:15:35;;;;;;;35.38;15.70;;;5.80;1.00;;;;;;20681681;28;20461;-41
2024/03/07 21:25:35;;;;;;;31.95;16.02;;;5.70;1.00;;;;;;20614639;28;20041;-41
2024/03/07 21:35:36;;;;;;;31.08;16.10;;;5.60;1.00;;;;;;20633071;28;20658;-40
2024/03/07 21:45:37;;;;;;;35.30;16.20;;;5.50;1.00;;;;;;20676436;28;20053;-41
2024/03/07 21:55:38;;;;;;;30.45;15.55;;;5.50;1.00;;;;;;20701077;28;20441;-41
2024/03/07 22:05:38;;;;;;;32.65;16.13;;;5.40;1.00;;;;;;20715165;28;24747;-41
2024/03/07 22:15:39;;;;;;;34.53;16.80;;;5.30;1.00;;;;;;20717289;28;20046;-41
2024/03/07 22:25:40;;;;;;;36.05;16.92;;;5.30;1.00;;;;;;20687683;28;20456;-41
2024/03/07 22:35:40;;;;;;;35.80;16.85;;;5.20;1.00;;;;;;20706132;28;20042;-41
2024/03/07 22:45:42;;;;;;;34.27;17.23;;;5.00;1.00;;;;;;20705237;28;20054;-41
2024/03/07 22:55:43;;;;;;;32.38;16.90;;;4.90;1.00;;;;;;20696771;28;20456;-40
2024/03/07 23:05:43;;;;;;;40.63;18.25;;;4.90;1.00;;;;;;20694818;28;20035;-40
2024/03/07 23:15:44;;;;;;;39.43;18.67;;;4.80;1.00;;;;;;20699077;28;20038;-41
2024/03/07 23:25:45;;;;;;;37.23;17.07;;;4.90;1.00;;;;;;20706731;28;20092;-40
2024/03/07 23:35:46;;;;;;;41.33;18.15;;;4.90;1.00;;;;;;20701096;28;21069;-40
2024/03/07 23:45:47;;;;;;;36.83;17.60;;;4.70;1.00;;;;;;20704264;28;20152;-40
2024/03/07 23:55:49;;;;;;;38.03;18.27;;;4.70;1.00;;;;;;20702234;28;20505;-40
